Latest Weather Observations for Charles Point

IDD60901

Issued at 8:31 am CST Sunday 1 March 2015 (issued every 10 minutes, with the page automatically refreshed every 10 minutes)

About weather observations | Map of Darwin area stations | Latest observations for Darwin area | Other Formats
Station Details ID: 014031 Name: CHARLES POINT Lat: -12.39 Lon: 130.63 Height: 14.0 m
Data from the previous 72 hours. | See also: Recent months for locations in Northern Territory
Date/Time
CST
Tmp

°C
App
Tmp
°C
Dew
Point
°C
Rel
Hum
%
Delta-T

°C
Wind Press
QNH
hPa
Press
MSL
hPa
Rain
since
9 am
mm
Dir
 
Spd
km/h
Gust
km/h
Spd
kts
Gust
kts
01/08:30am 29.5 35.1 25.7 80 2.7 W 7 13 4 7 1007.4 1007.2 0.0
01/08:00am 29.0 34.0 25.4 81 2.5 W 9 17 5 9 1006.8 1006.6 0.0
01/07:30am 28.7 33.5 25.1 81 2.5 W 9 17 5 9 1006.4 1006.2 0.0
01/07:00am 28.5 33.2 25.5 84 2.1 W 11 19 6 10 1006.1 1005.9 0.0
01/06:30am 28.5 32.8 25.5 84 2.1 W 13 24 7 13 1006.1 1005.9 0.0
01/06:00am 28.5 32.8 25.5 84 2.1 WNW 13 19 7 10 1005.7 1005.5 0.0
01/05:30am 28.4 33.7 25.2 83 2.3 W 7 13 4 7 1005.5 1005.3 0.0
01/05:00am 28.4 33.4 24.8 81 2.5 W 7 13 4 7 1005.4 1005.2 0.0
01/04:30am 28.4 32.9 24.6 80 2.7 W 9 19 5 10 1005.3 1005.1 0.0
01/04:00am 28.5 32.8 24.9 81 2.5 W 11 20 6 11 1005.4 1005.2 0.0
01/03:30am 28.5 32.8 24.9 81 2.5 W 11 19 6 10 1005.7 1005.5 0.0
01/03:00am 28.5 32.4 24.9 81 2.5 W 13 22 7 12 1006.1 1005.9 0.0
01/02:30am 28.5 32.8 24.9 81 2.5 W 11 19 6 10 1006.3 1006.1 0.0
01/02:00am 28.5 33.1 25.3 83 2.3 W 11 20 6 11 1006.4 1006.2 0.0
01/01:30am 28.6 33.6 25.4 83 2.3 W 9 17 5 9 1006.9 1006.7 0.0
01/01:00am 28.6 33.2 25.4 83 2.3 W 11 20 6 11 1006.8 1006.6 0.0
01/12:30am 28.7 33.3 25.3 82 2.4 W 11 17 6 9 1007.3 1007.1 0.0
01/12:00am 28.6 33.5 25.2 82 2.4 W 9 17 5 9 1007.9 1007.7 0.0
 
Date/Time
CST
Tmp

°C
App
Tmp
°C
Dew
Point
°C
Rel
Hum
%
Delta-T

°C
Wind Press
QNH
hPa
Press
MSL
hPa
Rain
since
9 am
mm
Dir
 
Spd
km/h
Gust
km/h
Spd
kts
Gust
kts
28/11:30pm 28.6 33.5 25.2 82 2.4 W 9 19 5 10 1008.3 1008.2 0.0
28/11:00pm 28.8 32.7 25.4 82 2.4 WNW 15 24 8 13 1008.2 1008.1 0.0
28/10:30pm 28.8 33.9 25.6 83 2.3 W 9 15 5 8 1008.4 1008.3 0.0
28/10:00pm 28.8 33.7 25.2 81 2.5 W 9 20 5 11 1008.2 1008.1 0.0
28/09:30pm 28.9 33.5 25.3 81 2.5 W 11 22 6 12 1007.7 1007.5 0.0
28/09:00pm 28.7 33.8 25.5 83 2.3 W 9 17 5 9 1006.7 1006.5 0.0
28/08:30pm 28.7 33.8 25.5 83 2.3 W 9 17 5 9 1006.1 1005.9 0.0
28/08:00pm 28.7 33.8 25.5 83 2.3 W 9 15 5 8 1005.8 1005.6 0.0
28/07:30pm 28.9 33.6 26.1 85 2.0 WNW 13 20 7 11 1005.6 1005.4 0.0
28/07:00pm 28.8 33.4 26.0 85 2.0 WNW 13 19 7 10 1005.4 1005.2 0.0
28/06:30pm 29.1 35.0 25.9 83 2.3 W 6 19 3 10 1005.4 1005.2 0.0
28/06:00pm 29.3 34.7 25.5 80 2.7 WSW 7 15 4 8 1005.1 1004.9 0.0
28/05:30pm 30.1 34.5 25.6 77 3.2 W 13 26 7 14 1004.9 1004.7 0.0
28/05:00pm 30.4 33.8 25.9 77 3.2 W 19 30 10 16 1005.1 1004.9 0.0
28/04:30pm 30.6 33.7 26.3 78 3.1 WNW 22 32 12 17 1005.4 1005.2 0.0
28/04:00pm 30.5 34.2 25.8 76 3.3 WNW 17 28 9 15 1005.5 1005.3 0.0
28/03:30pm 30.6 34.2 26.5 79 2.9 WNW 20 33 11 18 1005.6 1005.4 0.0
28/03:00pm 30.8 34.5 26.3 77 3.2 WNW 19 28 10 15 1005.6 1005.4 0.0
28/02:30pm 30.5 33.3 26.4 79 2.9 WNW 24 30 13 16 1006.0 1005.8 0.0
28/02:00pm 31.2 34.8 26.5 76 3.4 WNW 20 28 11 15 1006.5 1006.3 0.0
28/01:30pm 31.2 35.0 26.5 76 3.4 WNW 19 26 10 14 1006.9 1006.7 0.0
28/01:00pm 30.9 33.6 25.7 74 3.7 WNW 22 28 12 15 1007.3 1007.1 0.0
28/12:30pm 30.9 34.2 25.7 74 3.7 WNW 19 28 10 15 1007.7 1007.5 0.0
28/12:00pm 30.6 33.8 25.9 76 3.3 WNW 20 28 11 15 1008.1 1008.0 0.0
28/11:30am 30.7 34.1 26.2 77 3.2 WNW 20 26 11 14 1008.2 1008.1 0.0
28/11:00am 29.7 34.3 25.9 80 2.7 W 13 20 7 11 1008.4 1008.3 0.0
28/10:30am 30.0 34.6 25.3 76 3.3 W 11 20 6 11 1008.5 1008.4 0.0
28/10:00am 29.5 34.9 25.5 79 2.8 WSW 7 17 4 9 1008.5 1008.4 0.0
28/09:30am 29.0 34.3 25.2 80 2.7 W 7 13 4 7 1008.2 1008.1 0.0
28/09:00am 28.5 33.3 24.5 79 2.8 SW 7 17 4 9 1007.9 1007.7 47.0
28/08:30am 28.0 33.3 24.4 81 2.5 WSW 4 9 2 5 1007.2 1007.0 47.0
28/08:00am 26.3 30.5 23.4 84 2.0 SSW 7 9 4 5 1006.9 1006.7 47.0
28/07:30am 25.9 30.0 23.2 85 1.8 SW 7 11 4 6 1006.9 1006.7 47.0
28/07:00am 25.6 28.8 23.7 89 1.3 SSW 13 26 7 14 1006.7 1006.5 47.0
28/06:30am 25.5 29.3 24.1 92 1.0 SSW 11 19 6 10 1006.4 1006.2 47.0
28/06:00am 24.5 27.6 22.9 91 1.1 SSW 11 19 6 10 1006.2 1006.0 47.0
28/05:30am 23.3 26.2 21.7 91 1.1 SW 9 19 5 10 1006.7 1006.5 47.0
28/05:00am 22.9 24.2 21.7 93 0.8 W 17 30 9 16 1007.0 1006.8 46.4
28/04:30am 22.4 26.0 21.2 93 0.8 NE 4 9 2 5 1007.4 1007.2 38.0
28/04:07am 23.1 17.9 21.9 93 0.8 NNE 52 74 28 40 1006.4 1006.2 31.0
28/04:06am 23.4 18.0 22.2 93 0.8 NNE 54 74 29 40 1006.4 1006.2 30.4
28/04:00am 22.5 15.9 21.1 92 0.9 NNE 57 83 31 45 1006.1 1005.9 24.0
28/03:56am 22.9 17.5 21.5 92 0.9 NNE 52 83 28 45 1006.1 1005.9 19.6
28/03:54am 23.6 18.7 22.4 93 0.8 NNE 52 83 28 45 1005.5 1005.3 17.2
28/03:44am 25.0 21.3 24.0 94 0.7 NNE 50 76 27 41 1006.2 1006.0 9.2
28/03:41am 24.4 20.2 23.0 92 0.9 N 50 76 27 41 1006.3 1006.1 7.4
28/03:34am 25.9 24.1 24.3 91 1.1 N 41 59 22 32 1005.9 1005.7 4.8
28/03:30am 26.2 25.3 24.4 90 1.2 N 37 56 20 30 1006.0 1005.8 4.6
28/03:28am 26.0 24.9 24.2 90 1.2 N 37 52 20 28 1006.3 1006.1 4.6
28/03:00am 28.2 29.2 25.4 85 2.0 NW 30 39 16 21 1006.2 1006.0 2.0
28/02:30am 27.1 28.2 24.9 88 1.5 NW 28 39 15 21 1006.8 1006.6 1.6
28/02:00am 28.8 30.7 25.0 80 2.7 WNW 24 30 13 16 1007.0 1006.8 0.6
28/01:30am 28.8 30.7 25.0 80 2.7 WNW 24 28 13 15 1007.5 1007.3 0.6
28/01:00am 28.6 31.4 25.8 85 2.0 NW 22 28 12 15 1007.7 1007.5 0.6
28/12:30am 28.6 31.6 25.2 82 2.4 WNW 19 30 10 16 1008.0 1007.8 0.6
28/12:00am 28.5 31.7 25.5 84 2.1 WNW 19 24 10 13 1008.1 1008.0 0.6
 
Date/Time
CST
Tmp

°C
App
Tmp
°C
Dew
Point
°C
Rel
Hum
%
Delta-T

°C
Wind Press
QNH
hPa
Press
MSL
hPa
Rain
since
9 am
mm
Dir
 
Spd
km/h
Gust
km/h
Spd
kts
Gust
kts
27/11:30pm 28.2 33.1 25.2 84 2.1 W 9 19 5 10 1009.1 1009.0 0.6
27/11:00pm 28.0 32.0 25.0 84 2.1 W 13 24 7 13 1009.1 1009.0 0.6
27/10:30pm 28.4 33.5 25.6 85 2.0 W 9 13 5 7 1009.2 1009.1 0.2
27/10:00pm 28.7 32.2 25.5 83 2.3 WNW 17 20 9 11 1009.0 1008.9 0.2
27/09:30pm 28.7 33.5 25.7 84 2.1 WNW 11 19 6 10 1008.7 1008.6 0.2
27/09:00pm 28.6 32.2 25.6 84 2.1 WNW 17 22 9 12 1007.9 1007.7 0.2
27/08:30pm 28.8 33.2 25.0 80 2.7 W 11 17 6 9 1007.4 1007.2 0.2
27/08:00pm 28.6 32.5 24.8 80 2.7 WNW 13 22 7 12 1007.1 1006.9 0.2
27/07:30pm 28.2 32.3 24.6 81 2.5 W 11 20 6 11 1007.0 1006.8 0.2
27/07:00pm 28.1 32.4 24.9 83 2.2 W 11 19 6 10 1006.7 1006.5 0.2
27/06:30pm 28.1 32.3 25.3 85 2.0 W 13 22 7 12 1005.8 1005.6 0.2
27/06:00pm 28.2 32.1 25.4 85 2.0 WNW 15 22 8 12 1005.7 1005.5 0.2
27/05:30pm 27.8 32.4 24.8 84 2.1 W 9 17 5 9 1005.4 1005.2 0.2
27/05:00pm 27.9 33.1 25.1 85 2.0 W 7 15 4 8 1005.0 1004.8 0.2
27/04:30pm 28.0 30.8 25.0 84 2.1 W 19 35 10 19 1004.8 1004.6 0.2
27/04:00pm 28.3 29.9 23.9 77 3.0 NW 22 28 12 15 1005.1 1004.9 0.2
27/03:30pm 29.4 35.1 25.6 80 2.7 SW 6 9 3 5 1005.5 1005.3 0.2
27/03:00pm 29.6 34.0 25.1 77 3.2 W 11 20 6 11 1005.3 1005.1 0.2
27/02:30pm 30.7 33.2 24.8 71 4.2 WNW 20 28 11 15 1005.6 1005.4 0.2
27/02:00pm 31.8 35.8 25.6 69 4.4 W 15 28 8 15 1005.9 1005.7 0.2
27/01:30pm 31.0 34.4 25.8 74 3.7 WNW 19 30 10 16 1006.4 1006.2 0.2
27/01:00pm 31.6 34.9 25.7 71 4.2 WNW 19 26 10 14 1006.5 1006.3 0.2
27/12:30pm 31.5 34.7 25.6 71 4.2 WNW 19 30 10 16 1007.5 1007.3 0.2
27/12:00pm 31.3 35.2 26.1 74 3.7 WNW 17 24 9 13 1007.8 1007.6 0.2
27/11:30am 31.3 35.6 26.1 74 3.7 WNW 15 24 8 13 1008.3 1008.2 0.2
27/11:00am 30.8 35.9 26.1 76 3.4 W 11 19 6 10 1008.4 1008.3 0.2
27/10:30am 30.5 35.4 25.8 76 3.3 W 11 19 6 10 1008.4 1008.3 0.2
27/10:00am 30.2 35.3 25.5 76 3.3 W 9 17 5 9 1008.3 1008.2 0.0
27/09:30am 29.9 35.6 25.9 79 2.8 W 7 19 4 10 1008.4 1008.3 0.0
27/09:00am 29.4 34.9 25.6 80 2.7 W 7 13 4 7 1008.2 1008.1 0.4
27/08:30am 29.2 35.4 25.8 82 2.4 WSW 4 9 2 5 1008.0 1007.8 0.4
27/08:00am 28.6 34.4 25.2 82 2.4 WSW 4 7 2 4 1007.7 1007.5 0.4
27/07:30am 28.3 33.7 25.1 83 2.2 W 6 9 3 5 1007.0 1006.8 0.4
27/07:00am 28.0 33.8 25.2 85 2.0 WSW 4 7 2 4 1006.4 1006.2 0.4
27/06:30am 27.9 33.2 24.9 84 2.1 WSW 6 11 3 6 1005.9 1005.7 0.4
27/06:00am 28.0 33.6 25.4 86 1.8 WSW 6 13 3 7 1006.1 1005.9 0.4
27/05:30am 27.5 32.7 25.1 87 1.7 W 7 13 4 7 1005.9 1005.7 0.4
27/05:00am 27.4 32.6 24.8 86 1.8 SW 6 11 3 6 1005.7 1005.5 0.4
27/04:30am 27.5 32.4 24.7 85 2.0 W 7 15 4 8 1005.6 1005.4 0.4
27/04:00am 27.2 32.5 25.0 88 1.5 W 6 9 3 5 1005.7 1005.5 0.4
27/03:30am 27.6 32.8 24.8 85 2.0 W 6 7 3 4 1006.1 1005.9 0.0
27/03:00am 27.9 32.9 24.5 82 2.4 W 6 11 3 6 1006.4 1006.2 0.0
27/02:30am 28.7 32.4 24.5 78 2.9 WNW 13 17 7 9 1006.8 1006.6 0.0
27/02:00am 28.7 32.6 24.3 77 3.1 WNW 11 19 6 10 1007.2 1007.0 0.0
27/01:30am 28.9 32.8 24.2 76 3.3 WNW 11 17 6 9 1007.8 1007.6 0.0
27/01:00am 28.9 32.3 24.7 78 2.9 WNW 15 19 8 10 1008.0 1007.8 0.0
27/12:30am 29.0 32.7 24.6 77 3.1 WNW 13 17 7 9 1008.4 1008.3 0.0
27/12:00am 29.0 32.5 24.8 78 2.9 WNW 15 19 8 10 1008.6 1008.5 0.0
 
Date/Time
CST
Tmp

°C
App
Tmp
°C
Dew
Point
°C
Rel
Hum
%
Delta-T

°C
Wind Press
QNH
hPa
Press
MSL
hPa
Rain
since
9 am
mm
Dir
 
Spd
km/h
Gust
km/h
Spd
kts
Gust
kts
26/11:30pm 29.0 32.0 24.6 77 3.1 WNW 17 20 9 11 1008.5 1008.4 0.0
26/11:00pm 29.1 32.1 24.7 77 3.1 WNW 17 20 9 11 1008.9 1008.8 0.0
26/10:30pm 29.1 32.3 24.9 78 2.9 WNW 17 22 9 12 1008.9 1008.8 0.0
26/10:00pm 29.1 31.9 24.9 78 2.9 WNW 19 24 10 13 1008.1 1008.0 0.0
26/09:30pm 29.1 32.3 24.9 78 2.9 WNW 17 22 9 12 1007.9 1007.7 0.0
26/09:00pm 29.1 31.6 24.7 77 3.1 WNW 20 28 11 15 1007.6 1007.4 0.0
26/08:30pm 29.1 31.3 24.2 75 3.4 WNW 20 26 11 14 1007.1 1006.9 0.0
26/08:00pm 29.2 31.9 25.0 78 2.9 WNW 20 28 11 15 1006.7 1006.5 0.0
26/07:30pm 29.2 32.1 24.5 76 3.3 WNW 17 22 9 12 1006.5 1006.3 0.0
26/07:00pm 29.3 31.9 24.6 76 3.3 WNW 19 24 10 13 1006.5 1006.3 0.0
26/06:30pm 29.5 32.1 24.6 75 3.4 WNW 19 24 10 13 1006.2 1006.0 0.0
26/06:00pm 30.1 33.3 24.9 73 3.7 WNW 17 22 9 12 1005.8 1005.6 0.0
26/05:30pm 30.6 33.8 25.0 72 3.9 WNW 17 24 9 13 1005.7 1005.5 0.0
26/05:00pm 30.9 34.7 25.3 72 4.0 WNW 15 20 8 11 1005.4 1005.2 0.0
26/04:30pm 30.8 33.8 25.2 72 4.0 WNW 19 22 10 12 1005.3 1005.1 0.0
26/04:00pm 30.6 34.8 25.4 74 3.7 W 13 20 7 11 1006.0 1005.8 0.0
26/03:30pm 30.4 34.4 25.0 73 3.8 W 13 22 7 12 1005.7 1005.5 0.0
26/03:00pm 30.3 34.0 25.1 73 3.7 WNW 15 22 8 12 1005.6 1005.4 0.0
26/02:30pm 30.4 34.8 25.0 73 3.8 W 11 19 6 10 1005.9 1005.7 0.0
26/02:00pm 30.8 34.5 25.2 72 4.0 WNW 15 22 8 12 1006.4 1006.2 0.0
26/01:30pm 30.8 34.5 25.2 72 4.0 WNW 15 22 8 12 1006.9 1006.7 0.0
26/01:00pm 30.9 35.1 25.3 72 4.0 WNW 13 24 7 13 1007.4 1007.2 0.0
26/12:30pm 30.4 35.1 25.5 75 3.5 WNW 11 17 6 9 1007.9 1007.7 0.0
26/12:00pm 30.0 34.9 25.3 76 3.3 W 9 17 5 9 1008.4 1008.3 0.0
26/11:30am 30.3 35.8 25.6 76 3.3 W 7 17 4 9 1008.6 1008.5 0.0
26/11:00am 30.7 34.5 25.3 73 3.8 WNW 15 20 8 11 1008.8 1008.7 0.0
26/10:30am 30.5 35.0 25.8 76 3.3 WNW 13 17 7 9 1008.8 1008.7 0.0
26/10:00am 30.2 34.9 26.1 79 2.9 WNW 13 19 7 10 1009.1 1009.0 0.0
26/09:30am 29.6 34.4 24.2 73 3.8 WSW 6 11 3 6 1009.1 1009.0 0.0
26/09:00am 29.1 34.4 24.9 78 2.9 WSW 6 11 3 6 1009.2 1009.1 0.2

Latest Capital City Observations: Canberra | Sydney | Melbourne | Brisbane | Adelaide | Perth | Hobart | Darwin

Other Formats:

Comma delimited format used in spreadsheet applications
http://www.bom.gov.au/fwo/IDD60901/IDD60901.99510.axf

JavaScript Object Notation format (JSON) in row-major order
http://www.bom.gov.au/fwo/IDD60901/IDD60901.99510.json